TimeBST,TemperatureF,Dew PointF,Humidity,Sea Level PressureIn,VisibilityMPH,Wind Direction,Wind SpeedMPH,Gust SpeedMPH,PrecipitationIn,Events,Conditions,WindDirDegrees,DateUTC
12:20 AM,48.2,42.8,82,29.36,6.2,WSW,12.7,-,N/A,,Mostly Cloudy,250,2013-09-16 23:20:00
12:50 AM,48.2,42.8,82,29.36,6.2,West,11.5,-,N/A,,Mostly Cloudy,260,2013-09-16 23:50:00
1:20 AM,48.2,42.8,82,29.36,6.2,West,12.7,-,N/A,,Mostly Cloudy,260,2013-09-17 00:20:00
1:50 AM,48.2,42.8,82,29.36,6.2,West,13.8,-,N/A,,Overcast,260,2013-09-17 00:50:00
2:20 AM,48.2,41.0,76,29.36,6.2,West,13.8,-,N/A,,Mostly Cloudy,280,2013-09-17 01:20:00
2:50 AM,48.2,41.0,76,29.36,6.2,West,10.4,-,N/A,,Scattered Clouds,260,2013-09-17 01:50:00
3:20 AM,48.2,41.0,76,29.36,6.2,West,9.2,-,N/A,,Mostly Cloudy,260,2013-09-17 02:20:00
3:50 AM,48.2,41.0,76,29.33,6.2,WSW,10.4,-,N/A,,Mostly Cloudy,250,2013-09-17 02:50:00
4:20 AM,48.2,42.8,82,29.33,6.2,WSW,9.2,-,N/A,,Mostly Cloudy,250,2013-09-17 03:20:00
4:50 AM,48.2,42.8,82,29.33,6.2,WSW,11.5,-,N/A,,Overcast,240,2013-09-17 03:50:00
5:20 AM,48.2,42.8,82,29.33,6.2,WSW,13.8,-,N/A,,Overcast,240,2013-09-17 04:20:00
5:50 AM,48.2,42.8,82,29.33,6.2,WSW,11.5,-,N/A,,Mostly Cloudy,250,2013-09-17 04:50:00
6:20 AM,48.2,42.8,82,29.33,6.2,SW,10.4,-,N/A,,Mostly Cloudy,230,2013-09-17 05:20:00
6:50 AM,48.2,42.8,82,29.33,6.2,West,13.8,-,N/A,,Scattered Clouds,260,2013-09-17 05:50:00
7:20 AM,48.2,42.8,82,29.33,6.2,West,13.8,-,N/A,,Scattered Clouds,270,2013-09-17 06:20:00
7:50 AM,48.2,42.8,82,29.33,6.2,West,15.0,-,N/A,,Scattered Clouds,280,2013-09-17 06:50:00
8:20 AM,48.2,44.6,87,29.33,6.2,WSW,12.7,-,N/A,,Scattered Clouds,250,2013-09-17 07:20:00
8:50 AM,50.0,44.6,82,29.30,6.2,WSW,11.5,-,N/A,,Scattered Clouds,240,2013-09-17 07:50:00
9:20 AM,50.0,44.6,82,29.33,6.2,West,11.5,-,N/A,,Mostly Cloudy,260,2013-09-17 08:20:00
9:50 AM,50.0,44.6,82,29.33,6.2,WSW,12.7,-,N/A,,Mostly Cloudy,250,2013-09-17 08:50:00
10:20 AM,50.0,44.6,82,29.33,6.2,West,13.8,-,N/A,,Mostly Cloudy,260,2013-09-17 09:20:00
10:50 AM,50.0,44.6,82,29.33,6.2,West,13.8,-,N/A,,Mostly Cloudy,260,2013-09-17 09:50:00
11:20 AM,51.8,44.6,76,29.30,6.2,West,15.0,-,N/A,,Mostly Cloudy,260,2013-09-17 10:20:00
11:50 AM,51.8,44.6,76,29.30,6.2,West,12.7,-,N/A,,Mostly Cloudy,270,2013-09-17 10:50:00
12:20 PM,53.6,44.6,72,29.30,6.2,West,16.1,-,N/A,,Mostly Cloudy,270,2013-09-17 11:20:00
12:50 PM,51.8,44.6,76,29.30,6.2,West,15.0,-,N/A,Rain,Light Rain,270,2013-09-17 11:50:00
1:20 PM,51.8,46.4,82,29.33,6.2,West,12.7,-,N/A,,Mostly Cloudy,260,2013-09-17 12:20:00
1:50 PM,53.6,44.6,72,29.33,6.2,West,11.5,-,N/A,,Scattered Clouds,270,2013-09-17 12:50:00
2:20 PM,55.4,46.4,72,29.33,6.2,West,11.5,-,N/A,,Mostly Cloudy,270,2013-09-17 13:20:00
2:50 PM,51.8,44.6,76,29.33,3.7,WNW,15.0,-,N/A,Rain,Light Rain,290,2013-09-17 13:50:00
3:20 PM,55.4,46.4,72,29.30,6.2,WNW,9.2,-,N/A,,Mostly Cloudy,290,2013-09-17 14:20:00
3:50 PM,53.6,44.6,72,29.33,3.7,WNW,12.7,-,N/A,Rain,Light Rain,300,2013-09-17 14:50:00
4:20 PM,53.6,46.4,77,29.33,6.2,West,10.4,-,N/A,,Scattered Clouds,280,2013-09-17 15:20:00
4:50 PM,55.4,46.4,72,29.33,6.2,West,11.5,-,N/A,,Scattered Clouds,270,2013-09-17 15:50:00
5:20 PM,55.4,44.6,67,29.33,6.2,West,12.7,-,N/A,,Scattered Clouds,280,2013-09-17 16:20:00
5:50 PM,53.6,42.8,67,29.33,6.2,West,12.7,-,N/A,,Scattered Clouds,280,2013-09-17 16:50:00
6:20 PM,53.6,42.8,67,29.33,6.2,West,10.4,-,N/A,,Scattered Clouds,280,2013-09-17 17:20:00
6:50 PM,53.6,42.8,67,29.33,6.2,WNW,8.1,-,N/A,,Scattered Clouds,290,2013-09-17 17:50:00
7:20 PM,51.8,44.6,76,29.33,6.2,WNW,8.1,-,N/A,,Scattered Clouds,300,2013-09-17 18:20:00
7:50 PM,50.0,44.6,82,29.36,6.2,WNW,4.6,-,N/A,,Scattered Clouds,290,2013-09-17 18:50:00
8:20 PM,46.4,42.8,87,29.36,6.2,West,4.6,-,N/A,,Scattered Clouds,260,2013-09-17 19:20:00
8:50 PM,44.6,41.0,87,29.36,6.2,SW,5.8,-,N/A,,Scattered Clouds,230,2013-09-17 19:50:00
9:20 PM,44.6,41.0,87,29.36,6.2,West,5.8,-,N/A,,Scattered Clouds,270,2013-09-17 20:20:00
9:50 PM,44.6,41.0,87,29.39,6.2,West,4.6,-,N/A,,Partly Cloudy,270,2013-09-17 20:50:00
10:20 PM,44.6,41.0,87,29.39,-9999.0,West,9.2,-,N/A,,Clear,260,2013-09-17 21:20:00
10:50 PM,44.6,41.0,87,29.39,-9999.0,West,5.8,-,N/A,,Clear,270,2013-09-17 21:50:00
11:20 PM,41.0,39.2,93,29.39,-9999.0,WSW,5.8,-,N/A,,Clear,240,2013-09-17 22:20:00
11:50 PM,42.8,41.0,93,29.42,-9999.0,Variable,2.3,-,N/A,,Clear,0,2013-09-17 22:50:00